Time;durP1;ratioP1;P1;durP2;ratioP2;P2;SDS_P1;SDS_P2;PMS_P1;PMS_P2;Temp;Humidity;BMP_temperature;BMP_pressure;BME280_temperature;BME280_humidity;BME280_pressure;Samples;Min_cycle;Max_cycle;Signal;HPM_P1;HPM_P2
2022/11/27 00:01:38;;;;;;;21.25;8.68;;;;;;;;;;5074132;28;20102;-77
2022/11/27 00:04:05;;;;;;;13.45;7.20;;;;;;;;;;5070093;28;20066;-76
2022/11/27 00:06:32;;;;;;;15.20;8.00;;;;;;;;;;5045502;28;20045;-75
2022/11/27 00:08:59;;;;;;;16.27;8.20;;;;;;;;;;5048664;28;20481;-78
2022/11/27 00:11:26;;;;;;;21.58;8.65;;;;;;;;;;5055473;28;20050;-74
2022/11/27 00:13:52;;;;;;;12.43;7.30;;;;;;;;;;5066450;28;20052;-75
2022/11/27 00:16:19;;;;;;;16.33;7.35;;;;;;;;;;5061640;28;20499;-76
2022/11/27 00:18:46;;;;;;;16.20;7.70;;;;;;;;;;5070738;28;20377;-76
2022/11/27 00:21:15;;;;;;;17.10;8.27;;;;;;;;;;5061430;28;20044;-74
2022/11/27 00:23:41;;;;;;;15.57;8.25;;;;;;;;;;5065757;28;20041;-75
2022/11/27 00:26:08;;;;;;;17.02;7.85;;;;;;;;;;5077506;28;20103;-76
2022/11/27 00:28:34;;;;;;;17.40;7.97;;;;;;;;;;5060101;28;20047;-75
2022/11/27 00:31:01;;;;;;;15.18;7.25;;;;;;;;;;5066961;28;20059;-75
2022/11/27 00:33:27;;;;;;;18.45;7.85;;;;;;;;;;5045643;28;20393;-75
2022/11/27 00:35:53;;;;;;;15.73;7.85;;;;;;;;;;5064114;28;20040;-75
2022/11/27 00:38:19;;;;;;;16.23;7.47;;;;;;;;;;5059871;28;20052;-75
2022/11/27 00:40:46;;;;;;;15.90;7.63;;;;;;;;;;5043975;28;20044;-75
2022/11/27 00:43:12;;;;;;;15.75;7.63;;;;;;;;;;5042817;28;20055;-75
2022/11/27 00:45:38;;;;;;;17.25;8.25;;;;;;;;;;5042533;28;20089;-75
2022/11/27 00:48:04;;;;;;;19.85;7.07;;;;;;;;;;5058059;28;20381;-75
2022/11/27 00:50:33;;;;;;;16.15;7.47;;;;;;;;;;5076365;28;20075;-75
2022/11/27 00:52:59;;;;;;;20.17;7.70;;;;;;;;;;5077421;28;20994;-75
2022/11/27 00:55:26;;;;;;;14.70;7.47;;;;;;;;;;5047482;28;20045;-75
2022/11/27 00:57:52;;;;;;;13.52;7.68;;;;;;;;;;5066590;28;20626;-75
2022/11/27 01:00:18;;;;;;;15.85;7.47;;;;;;;;;;5061698;28;20037;-75
2022/11/27 01:02:44;;;;;;;13.18;7.18;;;;;;;;;;5078637;28;20064;-75
2022/11/27 01:05:10;;;;;;;12.07;7.50;;;;;;;;;;5061662;28;20457;-75
2022/11/27 01:07:36;;;;;;;14.75;7.95;;;;;;;;;;5068451;28;20128;-75
2022/11/27 01:10:02;;;;;;;14.80;7.20;;;;;;;;;;5068339;28;20343;-75
2022/11/27 01:12:28;;;;;;;17.60;7.80;;;;;;;;;;5081031;28;20136;-75
2022/11/27 01:14:54;;;;;;;16.30;8.25;;;;;;;;;;5071433;28;20120;-74
2022/11/27 01:17:20;;;;;;;19.40;7.25;;;;;;;;;;5054065;28;20135;-75
2022/11/27 01:19:46;;;;;;;21.67;7.93;;;;;;;;;;5073262;28;20457;-75
2022/11/27 01:22:12;;;;;;;15.05;7.85;;;;;;;;;;5072724;28;20044;-75
2022/11/27 01:24:38;;;;;;;16.33;7.55;;;;;;;;;;5072742;28;20396;-75
2022/11/27 01:27:04;;;;;;;14.63;7.00;;;;;;;;;;5080915;28;20045;-75
2022/11/27 01:29:30;;;;;;;11.63;6.78;;;;;;;;;;5089490;28;20036;-75
2022/11/27 01:31:56;;;;;;;16.88;7.22;;;;;;;;;;5085273;28;20408;-75
2022/11/27 01:34:22;;;;;;;15.23;7.72;;;;;;;;;;5073888;28;20072;-75
2022/11/27 01:36:48;;;;;;;23.25;7.80;;;;;;;;;;5071979;28;20123;-75
2022/11/27 01:39:18;;;;;;;14.68;6.95;;;;;;;;;;5085368;28;20068;-75
2022/11/27 01:41:45;;;;;;;17.73;6.82;;;;;;;;;;5076703;28;20045;-75
2022/11/27 01:44:23;;;;;;;17.38;7.20;;;;;;;;;;5075519;28;20089;-75
2022/11/27 01:46:49;;;;;;;13.85;6.47;;;;;;;;;;5082926;28;20074;-75
2022/11/27 01:49:21;;;;;;;17.42;7.43;;;;;;;;;;5044141;28;20044;-75
2022/11/27 01:51:51;;;;;;;13.95;6.93;;;;;;;;;;5074689;28;20055;-75
2022/11/27 01:54:18;;;;;;;19.75;6.60;;;;;;;;;;5072849;28;20045;-75
2022/11/27 01:56:45;;;;;;;13.75;6.35;;;;;;;;;;5057360;28;20044;-75
2022/11/27 01:59:11;;;;;;;14.18;6.68;;;;;;;;;;5071508;28;20446;-75
2022/11/27 02:01:37;;;;;;;14.35;6.72;;;;;;;;;;5085252;28;20056;-75
2022/11/27 02:04:03;;;;;;;12.57;6.03;;;;;;;;;;5068390;28;20041;-75
2022/11/27 02:06:29;;;;;;;16.67;6.72;;;;;;;;;;5046088;28;20067;-75
2022/11/27 02:08:55;;;;;;;17.35;7.03;;;;;;;;;;5087901;28;20508;-75
2022/11/27 02:11:35;;;;;;;13.63;5.80;;;;;;;;;;5087681;28;20045;-75
2022/11/27 02:14:07;;;;;;;12.95;6.43;;;;;;;;;;5070427;28;20083;-75
2022/11/27 02:16:43;;;;;;;13.68;6.93;;;;;;;;;;5070834;28;20076;-75
2022/11/27 02:19:24;;;;;;;14.18;6.20;;;;;;;;;;5068535;28;20040;-75
2022/11/27 02:21:50;;;;;;;18.05;6.40;;;;;;;;;;5086169;28;20057;-75
2022/11/27 02:24:23;;;;;;;12.32;5.28;;;;;;;;;;5054329;28;20114;-75
2022/11/27 02:26:55;;;;;;;10.82;5.55;;;;;;;;;;5039492;28;20045;-75
2022/11/27 02:29:31;;;;;;;13.60;5.80;;;;;;;;;;5082801;28;20074;-75
2022/11/27 02:31:59;;;;;;;12.50;5.75;;;;;;;;;;5050195;28;20048;-76
2022/11/27 02:34:34;;;;;;;14.35;5.47;;;;;;;;;;5050959;28;20044;-75
2022/11/27 02:37:12;;;;;;;12.60;5.70;;;;;;;;;;5046810;28;20492;-75
2022/11/27 02:39:42;;;;;;;13.13;5.93;;;;;;;;;;5051287;28;20127;-75
2022/11/27 02:42:12;;;;;;;13.95;5.80;;;;;;;;;;5052576;28;20060;-75
2022/11/27 02:44:42;;;;;;;16.50;5.70;;;;;;;;;;5053849;28;20087;-75
2022/11/27 02:47:09;;;;;;;8.43;5.25;;;;;;;;;;5084239;28;20036;-75
2022/11/27 02:49:36;;;;;;;10.88;5.70;;;;;;;;;;5072561;28;20052;-75
2022/11/27 02:52:03;;;;;;;13.73;5.60;;;;;;;;;;5082208;28;20056;-75
2022/11/27 02:54:30;;;;;;;12.18;5.90;;;;;;;;;;5058638;28;20485;-75
2022/11/27 02:56:58;;;;;;;12.05;5.50;;;;;;;;;;5066573;28;20044;-75
2022/11/27 02:59:26;;;;;;;10.55;5.82;;;;;;;;;;5086854;28;20337;-75
2022/11/27 03:01:53;;;;;;;11.63;5.78;;;;;;;;;;5084622;28;20048;-75
2022/11/27 03:04:25;;;;;;;13.13;5.28;;;;;;;;;;5067589;28;20380;-75
2022/11/27 03:06:56;;;;;;;14.32;6.10;;;;;;;;;;5088246;28;20164;-75
2022/11/27 03:09:28;;;;;;;14.15;5.38;;;;;;;;;;5065958;28;20147;-75
2022/11/27 03:11:55;;;;;;;12.65;6.03;;;;;;;;;;5087494;28;20095;-75
2022/11/27 03:14:23;;;;;;;12.40;5.93;;;;;;;;;;5087978;28;20051;-75
2022/11/27 03:16:58;;;;;;;9.38;5.20;;;;;;;;;;5045811;28;20051;-75
2022/11/27 03:19:30;;;;;;;12.98;5.88;;;;;;;;;;5086274;28;20036;-75
2022/11/27 03:21:58;;;;;;;10.13;5.38;;;;;;;;;;5081222;28;20094;-75
2022/11/27 03:24:24;;;;;;;13.77;6.03;;;;;;;;;;5088242;28;20059;-76
2022/11/27 03:26:51;;;;;;;12.75;5.75;;;;;;;;;;5055272;28;20060;-75
2022/11/27 03:29:19;;;;;;;10.63;5.78;;;;;;;;;;5054375;28;20468;-75
2022/11/27 03:31:45;;;;;;;13.15;6.18;;;;;;;;;;5057698;28;20040;-75
2022/11/27 03:34:11;;;;;;;12.40;5.68;;;;;;;;;;5049743;28;20041;-75
2022/11/27 03:36:37;;;;;;;9.93;5.15;;;;;;;;;;5070009;28;20067;-75
2022/11/27 03:39:03;;;;;;;10.02;5.15;;;;;;;;;;5076946;28;20130;-75
2022/11/27 03:41:48;;;;;;;9.98;5.32;;;;;;;;;;5073170;28;20056;-75
2022/11/27 03:44:33;;;;;;;14.00;5.22;;;;;;;;;;5078641;28;20131;-75
2022/11/27 03:47:05;;;;;;;14.27;5.32;;;;;;;;;;5058745;28;20451;-75
2022/11/27 03:49:36;;;;;;;13.10;4.95;;;;;;;;;;5067281;28;20056;-75
2022/11/27 03:52:20;;;;;;;13.93;5.65;;;;;;;;;;5073541;28;20047;-75
2022/11/27 03:54:52;;;;;;;10.40;5.40;;;;;;;;;;5085868;28;20048;-75
2022/11/27 03:57:21;;;;;;;12.30;5.43;;;;;;;;;;5085279;28;20122;-75
2022/11/27 03:59:49;;;;;;;13.20;5.78;;;;;;;;;;5051469;28;20101;-75
2022/11/27 04:02:16;;;;;;;12.50;6.25;;;;;;;;;;5082949;28;20078;-75
2022/11/27 04:04:42;;;;;;;15.50;5.53;;;;;;;;;;5067766;28;20047;-75
2022/11/27 04:07:15;;;;;;;12.10;6.13;;;;;;;;;;5081538;28;20071;-75
2022/11/27 04:09:41;;;;;;;12.15;6.18;;;;;;;;;;5078183;28;20404;-75
2022/11/27 04:12:07;;;;;;;12.35;5.50;;;;;;;;;;5085257;28;20040;-75
2022/11/27 04:14:33;;;;;;;10.98;5.68;;;;;;;;;;5082049;28;20484;-75
2022/11/27 04:16:59;;;;;;;12.13;5.22;;;;;;;;;;5084101;28;20055;-75
2022/11/27 04:19:25;;;;;;;8.70;4.95;;;;;;;;;;5065348;28;20086;-75
2022/11/27 04:21:51;;;;;;;8.98;4.95;;;;;;;;;;5082292;28;20079;-75
2022/11/27 04:24:17;;;;;;;11.30;5.68;;;;;;;;;;5081830;28;20637;-75
2022/11/27 04:26:43;;;;;;;9.57;5.53;;;;;;;;;;5069527;28;20053;-75
2022/11/27 04:29:09;;;;;;;12.10;5.55;;;;;;;;;;5042534;28;20041;-75
2022/11/27 04:31:35;;;;;;;8.13;4.68;;;;;;;;;;5048818;28;20813;-74
2022/11/27 04:34:01;;;;;;;11.90;5.22;;;;;;;;;;5066229;28;20087;-75
2022/11/27 04:36:27;;;;;;;11.35;5.60;;;;;;;;;;5067350;28;20064;-75
2022/11/27 04:38:53;;;;;;;12.35;5.47;;;;;;;;;;5068085;28;20080;-75
2022/11/27 04:41:19;;;;;;;12.60;5.00;;;;;;;;;;5082456;28;20055;-75
2022/11/27 04:43:45;;;;;;;11.63;4.88;;;;;;;;;;5067822;28;20041;-75
2022/11/27 04:46:14;;;;;;;10.82;5.60;;;;;;;;;;5082093;28;20041;-75
2022/11/27 04:48:41;;;;;;;15.18;5.47;;;;;;;;;;5051185;28;20563;-75
2022/11/27 04:51:07;;;;;;;11.18;6.10;;;;;;;;;;5086089;28;20186;-75
2022/11/27 04:53:33;;;;;;;11.63;5.22;;;;;;;;;;5067441;28;20044;-75
2022/11/27 04:55:59;;;;;;;11.93;5.70;;;;;;;;;;5086699;28;20084;-75
2022/11/27 04:58:25;;;;;;;11.15;5.07;;;;;;;;;;5055210;28;20228;-75
2022/11/27 05:00:51;;;;;;;11.98;5.15;;;;;;;;;;5079009;28;20052;-75
2022/11/27 05:03:17;;;;;;;9.38;4.90;;;;;;;;;;5052725;28;20049;-75
2022/11/27 05:05:54;;;;;;;13.38;5.50;;;;;;;;;;5051581;28;20125;-75
2022/11/27 05:08:20;;;;;;;10.30;5.03;;;;;;;;;;5086753;28;20072;-75
2022/11/27 05:10:46;;;;;;;8.63;5.05;;;;;;;;;;5070136;28;20130;-75
2022/11/27 05:13:12;;;;;;;9.98;5.30;;;;;;;;;;5069832;28;20053;-75
2022/11/27 05:15:38;;;;;;;9.38;4.80;;;;;;;;;;5066615;28;20499;-75
2022/11/27 05:18:04;;;;;;;8.40;5.72;;;;;;;;;;5053685;28;20102;-75
2022/11/27 05:20:30;;;;;;;9.90;5.07;;;;;;;;;;5054187;28;20484;-75
2022/11/27 05:22:56;;;;;;;9.93;5.07;;;;;;;;;;5084156;28;20044;-75
2022/11/27 05:25:22;;;;;;;10.45;5.00;;;;;;;;;;5068364;28;20102;-75
2022/11/27 05:27:48;;;;;;;8.98;5.55;;;;;;;;;;5054321;28;20044;-75
2022/11/27 05:30:14;;;;;;;10.10;4.63;;;;;;;;;;5086594;28;20055;-75
2022/11/27 05:32:40;;;;;;;7.82;5.20;;;;;;;;;;5069094;28;20098;-75
2022/11/27 05:35:06;;;;;;;12.43;5.22;;;;;;;;;;5085241;28;20052;-75
2022/11/27 05:37:32;;;;;;;6.38;4.15;;;;;;;;;;5086445;28;20476;-75
2022/11/27 05:39:58;;;;;;;11.77;5.38;;;;;;;;;;5085580;28;20071;-75
2022/11/27 05:42:24;;;;;;;12.30;5.18;;;;;;;;;;5085660;28;20076;-75
2022/11/27 05:44:50;;;;;;;10.15;4.80;;;;;;;;;;5083221;28;20076;-75
2022/11/27 05:47:16;;;;;;;10.68;5.60;;;;;;;;;;5071683;28;20475;-75
2022/11/27 05:49:42;;;;;;;11.77;5.03;;;;;;;;;;5083915;28;20430;-75
2022/11/27 05:52:08;;;;;;;11.23;5.18;;;;;;;;;;5052587;28;20665;-75
2022/11/27 05:54:34;;;;;;;8.90;5.13;;;;;;;;;;5074388;28;20098;-75
2022/11/27 05:57:00;;;;;;;10.45;5.07;;;;;;;;;;5063275;28;20043;-75
2022/11/27 05:59:26;;;;;;;11.13;5.15;;;;;;;;;;5087385;28;20048;-75
2022/11/27 06:01:52;;;;;;;11.43;5.22;;;;;;;;;;5050293;28;20067;-75
2022/11/27 06:04:18;;;;;;;11.60;5.22;;;;;;;;;;5086858;28;20044;-75
2022/11/27 06:06:44;;;;;;;10.50;5.10;;;;;;;;;;5056050;28;20052;-76
2022/11/27 06:09:10;;;;;;;11.13;5.13;;;;;;;;;;5081414;28;20044;-75
2022/11/27 06:11:37;;;;;;;10.10;5.40;;;;;;;;;;5082016;28;20079;-76
2022/11/27 06:14:03;;;;;;;11.13;5.43;;;;;;;;;;5049952;28;20051;-75
2022/11/27 06:16:29;;;;;;;7.43;5.18;;;;;;;;;;5067805;28;20055;-75
2022/11/27 06:18:55;;;;;;;9.63;5.18;;;;;;;;;;5072373;28;20036;-75
2022/11/27 06:21:22;;;;;;;8.60;5.93;;;;;;;;;;5051341;28;20458;-75
2022/11/27 06:23:49;;;;;;;8.88;5.07;;;;;;;;;;5083601;28;20085;-75
2022/11/27 06:26:19;;;;;;;10.68;5.30;;;;;;;;;;5066077;28;20172;-75
2022/11/27 06:28:45;;;;;;;10.95;5.28;;;;;;;;;;5054807;28;20041;-75
2022/11/27 06:31:13;;;;;;;12.98;5.65;;;;;;;;;;5068742;28;20660;-75
2022/11/27 06:33:39;;;;;;;9.43;4.95;;;;;;;;;;5083331;28;20091;-75
2022/11/27 06:36:06;;;;;;;8.88;5.00;;;;;;;;;;5084104;28;20111;-75
2022/11/27 06:38:35;;;;;;;11.48;5.20;;;;;;;;;;5050714;28;20189;-75
2022/11/27 06:41:03;;;;;;;9.07;4.95;;;;;;;;;;5082537;28;20389;-75
2022/11/27 06:43:29;;;;;;;12.80;5.20;;;;;;;;;;5048618;28;20041;-75
2022/11/27 06:45:58;;;;;;;8.15;4.90;;;;;;;;;;5057815;28;20058;-75
2022/11/27 06:48:24;;;;;;;9.85;5.10;;;;;;;;;;5082008;28;20045;-75
2022/11/27 06:50:50;;;;;;;11.82;5.40;;;;;;;;;;5043709;28;20131;-75
2022/11/27 06:53:17;;;;;;;9.05;4.88;;;;;;;;;;5067431;28;20185;-75
2022/11/27 06:55:43;;;;;;;9.10;4.78;;;;;;;;;;5070864;28;20580;-75
2022/11/27 06:58:09;;;;;;;8.70;5.10;;;;;;;;;;5070403;28;20234;-75
2022/11/27 07:00:35;;;;;;;10.40;5.53;;;;;;;;;;5079792;28;20172;-75
2022/11/27 07:03:01;;;;;;;10.98;5.72;;;;;;;;;;5081275;28;20055;-75
2022/11/27 07:05:28;;;;;;;7.25;4.50;;;;;;;;;;5074024;28;20479;-75
2022/11/27 07:07:54;;;;;;;11.60;5.22;;;;;;;;;;5050068;28;20072;-75
2022/11/27 07:10:20;;;;;;;9.85;4.90;;;;;;;;;;5050201;28;20488;-75
2022/11/27 07:12:46;;;;;;;8.25;4.65;;;;;;;;;;5068906;28;20048;-75
2022/11/27 07:15:12;;;;;;;9.75;4.70;;;;;;;;;;5085573;28;20041;-75
2022/11/27 07:17:40;;;;;;;9.05;4.95;;;;;;;;;;5067378;28;20369;-75
2022/11/27 07:20:06;;;;;;;7.68;4.20;;;;;;;;;;5053233;28;20072;-75
2022/11/27 07:22:32;;;;;;;7.97;4.57;;;;;;;;;;5078573;28;20138;-75
2022/11/27 07:24:58;;;;;;;8.50;4.78;;;;;;;;;;5052639;28;20123;-75
2022/11/27 07:27:27;;;;;;;9.30;4.88;;;;;;;;;;5052460;28;20499;-75
2022/11/27 07:29:56;;;;;;;9.48;5.20;;;;;;;;;;5084830;28;20048;-75
2022/11/27 07:32:22;;;;;;;8.63;4.65;;;;;;;;;;5079112;28;20106;-75
2022/11/27 07:34:48;;;;;;;8.73;4.45;;;;;;;;;;5053183;28;20551;-75
2022/11/27 07:37:14;;;;;;;8.02;4.72;;;;;;;;;;5076951;28;20050;-75
2022/11/27 07:39:40;;;;;;;11.55;5.20;;;;;;;;;;5045432;28;20052;-76
2022/11/27 07:42:06;;;;;;;6.53;4.53;;;;;;;;;;5085168;28;20499;-76
2022/11/27 07:44:32;;;;;;;10.15;4.75;;;;;;;;;;5084607;28;20044;-76
2022/11/27 07:46:58;;;;;;;10.77;5.22;;;;;;;;;;5062181;28;20049;-76
2022/11/27 07:49:24;;;;;;;8.93;4.80;;;;;;;;;;5047682;28;20040;-76
2022/11/27 07:51:53;;;;;;;10.57;4.78;;;;;;;;;;5081061;28;20063;-75
2022/11/27 07:54:19;;;;;;;8.20;4.72;;;;;;;;;;5081618;28;20042;-76
2022/11/27 07:56:45;;;;;;;9.65;4.85;;;;;;;;;;5052603;28;20079;-76
2022/11/27 07:59:11;;;;;;;9.10;4.47;;;;;;;;;;5066152;28;20036;-76
2022/11/27 08:01:37;;;;;;;9.07;4.70;;;;;;;;;;5081433;28;20504;-76
2022/11/27 08:04:05;;;;;;;9.00;4.72;;;;;;;;;;5068435;28;20032;-76
2022/11/27 08:06:31;;;;;;;8.02;4.63;;;;;;;;;;5047997;28;20101;-75
2022/11/27 08:08:57;;;;;;;8.27;4.40;;;;;;;;;;5067598;28;20454;-75
2022/11/27 08:11:25;;;;;;;8.90;4.63;;;;;;;;;;5080687;28;20041;-76
2022/11/27 08:13:55;;;;;;;9.15;4.60;;;;;;;;;;5049058;28;20079;-76
2022/11/27 08:16:21;;;;;;;8.63;4.38;;;;;;;;;;5053661;28;20079;-76
2022/11/27 08:18:46;;;;;;;9.07;5.00;;;;;;;;;;5085082;28;20100;-76
2022/11/27 08:21:13;;;;;;;8.85;4.53;;;;;;;;;;5068247;28;20101;-76
2022/11/27 08:23:39;;;;;;;7.93;4.45;;;;;;;;;;5055098;28;20127;-76
2022/11/27 08:26:05;;;;;;;9.50;5.00;;;;;;;;;;5065418;28;20041;-76
2022/11/27 08:28:31;;;;;;;9.93;4.60;;;;;;;;;;5081273;28;20045;-77
2022/11/27 08:30:58;;;;;;;9.63;4.53;;;;;;;;;;5089394;28;20381;-76
2022/11/27 08:33:24;;;;;;;9.45;4.97;;;;;;;;;;5088311;28;20059;-77
2022/11/27 08:35:51;;;;;;;7.40;4.50;;;;;;;;;;5055199;28;20047;-76
2022/11/27 08:38:17;;;;;;;7.88;4.60;;;;;;;;;;5062645;28;20135;-76
2022/11/27 08:40:43;;;;;;;12.18;4.97;;;;;;;;;;5071271;28;20178;-76
2022/11/27 08:43:12;;;;;;;9.70;4.60;;;;;;;;;;5072373;28;20142;-78
2022/11/27 08:45:39;;;;;;;9.50;4.65;;;;;;;;;;5059760;28;20407;-77
2022/11/27 08:48:05;;;;;;;10.60;4.75;;;;;;;;;;5066037;28;20170;-77
2022/11/27 08:50:31;;;;;;;7.07;4.53;;;;;;;;;;5047580;28;20127;-76
2022/11/27 08:52:57;;;;;;;6.68;4.13;;;;;;;;;;5070425;28;20140;-76
2022/11/27 08:55:23;;;;;;;8.48;4.65;;;;;;;;;;5072150;28;20484;-76
2022/11/27 08:57:50;;;;;;;16.23;9.02;;;;;;;;;;5091459;28;20044;-77
2022/11/27 09:00:16;;;;;;;9.95;6.70;;;;;;;;;;5063321;28;20481;-79
2022/11/27 09:02:42;;;;;;;9.35;5.13;;;;;;;;;;5058934;28;20147;-78
2022/11/27 09:05:08;;;;;;;10.43;5.32;;;;;;;;;;5050327;28;20193;-80
2022/11/27 09:07:34;;;;;;;9.35;5.38;;;;;;;;;;5075030;28;20044;-78
2022/11/27 09:10:00;;;;;;;10.10;4.82;;;;;;;;;;5049935;28;20089;-78
2022/11/27 09:12:30;;;;;;;8.82;7.20;;;;;;;;;;5082426;28;20066;-78
2022/11/27 09:14:58;;;;;;;10.40;6.53;;;;;;;;;;5086409;28;20044;-77
2022/11/27 09:17:24;;;;;;;9.10;5.25;;;;;;;;;;5070003;28;20112;-78
2022/11/27 09:19:51;;;;;;;9.48;4.90;;;;;;;;;;5090058;28;20052;-77
2022/11/27 09:22:17;;;;;;;9.60;5.40;;;;;;;;;;5077665;28;20039;-78
2022/11/27 09:24:43;;;;;;;8.98;5.60;;;;;;;;;;5059262;28;20051;-77
2022/11/27 09:27:09;;;;;;;7.72;5.20;;;;;;;;;;5084153;28;20056;-78
2022/11/27 09:29:35;;;;;;;8.88;4.85;;;;;;;;;;5072538;28;20041;-79
2022/11/27 09:32:01;;;;;;;9.00;4.53;;;;;;;;;;5065451;28;20452;-75
2022/11/27 09:34:27;;;;;;;8.65;4.90;;;;;;;;;;5063272;28;20123;-79
2022/11/27 09:36:53;;;;;;;9.48;4.50;;;;;;;;;;5086531;28;20127;-78
2022/11/27 09:39:20;;;;;;;8.40;5.10;;;;;;;;;;5050421;28;20044;-79
2022/11/27 09:41:48;;;;;;;9.10;4.93;;;;;;;;;;5055457;28;20447;-80
2022/11/27 09:44:23;;;;;;;7.88;5.40;;;;;;;;;;5087848;28;20094;-77
2022/11/27 09:46:50;;;;;;;13.85;8.10;;;;;;;;;;5065252;28;20393;-78
2022/11/27 09:49:36;;;;;;;9.98;6.43;;;;;;;;;;5072770;28;20119;-76
2022/11/27 09:52:20;;;;;;;13.60;6.75;;;;;;;;;;5078975;28;20479;-80
2022/11/27 09:54:46;;;;;;;;;;;;;;;;;;5064303;28;20048;-79
2022/11/27 09:57:15;;;;;;;10.27;6.13;;;;;;;;;;5064511;28;19930;-79
2022/11/27 09:59:49;;;;;;;10.25;5.32;;;;;;;;;;5044425;28;20396;-76
2022/11/27 10:02:21;;;;;;;8.93;5.88;;;;;;;;;;5061469;28;20037;-76
2022/11/27 10:04:47;;;;;;;9.02;5.28;;;;;;;;;;5062462;28;20392;-76
2022/11/27 10:07:13;;;;;;;8.93;5.00;;;;;;;;;;5050012;28;20059;-76
2022/11/27 10:09:39;;;;;;;11.57;6.75;;;;;;;;;;5066851;28;20045;-76
2022/11/27 10:12:23;;;;;;;12.25;6.75;;;;;;;;;;5046788;28;20045;-76
2022/11/27 10:14:58;;;;;;;8.88;6.03;;;;;;;;;;5050237;28;20190;-76
2022/11/27 10:17:38;;;;;;;13.27;7.78;;;;;;;;;;5045571;28;20033;-76
2022/11/27 10:20:10;;;;;;;8.80;5.95;;;;;;;;;;5080086;28;20048;-76
2022/11/27 10:22:36;;;;;;;9.63;6.90;;;;;;;;;;5069513;28;20040;-76
2022/11/27 10:25:10;;;;;;;12.30;6.03;;;;;;;;;;5045914;28;20314;-76
2022/11/27 10:27:43;;;;;;;11.48;5.93;;;;;;;;;;5061740;28;20041;-75
2022/11/27 10:30:15;;;;;;;10.48;5.80;;;;;;;;;;5059311;28;20093;-76
2022/11/27 10:32:41;;;;;;;9.13;5.05;;;;;;;;;;5044570;28;20122;-76
2022/11/27 10:35:18;;;;;;;10.00;5.57;;;;;;;;;;5065817;28;20443;-76
2022/11/27 10:37:50;;;;;;;13.93;9.52;;;;;;;;;;5081782;28;20044;-76
2022/11/27 10:40:31;;;;;;;11.27;7.22;;;;;;;;;;5078373;28;20101;-76
2022/11/27 10:43:12;;;;;;;13.27;7.50;;;;;;;;;;5052826;28;20496;-76
2022/11/27 10:45:39;;;;;;;10.63;5.80;;;;;;;;;;5064593;28;20506;-76
2022/11/27 10:48:05;;;;;;;12.30;6.75;;;;;;;;;;5079824;28;20503;-75
2022/11/27 10:50:32;;;;;;;15.48;8.77;;;;;;;;;;5062824;28;20122;-76
2022/11/27 10:53:00;;;;;;;12.88;9.30;;;;;;;;;;5046345;28;20064;-76
2022/11/27 10:55:46;;;;;;;12.25;7.88;;;;;;;;;;5064440;28;21227;-76
2022/11/27 10:58:20;;;;;;;16.98;9.90;;;;;;;;;;5078807;28;20182;-76
2022/11/27 11:00:46;;;;;;;13.60;8.68;;;;;;;;;;5059577;28;20469;-76
2022/11/27 11:03:15;;;;;;;13.60;7.50;;;;;;;;;;5041002;28;20048;-76
2022/11/27 11:05:41;;;;;;;12.52;7.53;;;;;;;;;;5060290;28;20041;-76
2022/11/27 11:08:33;;;;;;;13.55;8.77;;;;;;;;;;5063358;28;20043;-76
2022/11/27 11:11:01;;;;;;;13.15;6.65;;;;;;;;;;5046328;28;20485;-75
2022/11/27 11:13:49;;;;;;;12.57;6.55;;;;;;;;;;5081652;28;20395;-76
2022/11/27 11:16:20;;;;;;;13.55;7.65;;;;;;;;;;5079750;28;20411;-76
2022/11/27 11:18:48;;;;;;;13.10;7.30;;;;;;;;;;5082083;28;20053;-76
2022/11/27 11:21:17;;;;;;;14.25;7.75;;;;;;;;;;5046991;28;20317;-76
2022/11/27 11:23:52;;;;;;;13.57;8.45;;;;;;;;;;5075241;28;20045;-76
2022/11/27 11:26:18;;;;;;;13.93;7.68;;;;;;;;;;5062498;28;20041;-76
2022/11/27 11:28:48;;;;;;;10.05;6.38;;;;;;;;;;5046914;28;20052;-76
2022/11/27 11:31:15;;;;;;;14.25;7.28;;;;;;;;;;5075020;28;20503;-76
2022/11/27 11:33:50;;;;;;;13.13;7.70;;;;;;;;;;5064445;28;20098;-76
2022/11/27 11:36:16;;;;;;;11.35;6.53;;;;;;;;;;5039217;28;20105;-76
2022/11/27 11:38:44;;;;;;;14.57;9.23;;;;;;;;;;5041391;28;20051;-76
2022/11/27 11:41:12;;;;;;;14.63;8.02;;;;;;;;;;5042843;28;20109;-76
2022/11/27 11:43:38;;;;;;;19.50;12.40;;;;;;;;;;5075425;28;20045;-76
2022/11/27 11:46:24;;;;;;;16.75;10.38;;;;;;;;;;5039849;28;20047;-76
2022/11/27 11:49:01;;;;;;;18.75;12.82;;;;;;;;;;5069029;28;20041;-76
2022/11/27 11:51:33;;;;;;;20.25;13.95;;;;;;;;;;5044517;28;20048;-76
2022/11/27 11:54:12;;;;;;;12.43;6.85;;;;;;;;;;5050715;28;20353;-76
2022/11/27 11:56:41;;;;;;;14.45;9.50;;;;;;;;;;5061549;28;20040;-76
2022/11/27 11:59:26;;;;;;;11.82;7.07;;;;;;;;;;5049159;28;20044;-74
2022/11/27 12:02:27;;;;;;;13.93;8.80;;;;;;;;;;5077374;28;20049;-75
2022/11/27 12:05:03;;;;;;;14.27;8.63;;;;;;;;;;4943838;28;21073;-75
2022/11/27 12:07:32;;;;;;;11.43;7.60;;;;;;;;;;5031677;28;20064;-75
2022/11/27 12:10:17;;;;;;;11.88;6.82;;;;;;;;;;5080849;28;20059;-76
2022/11/27 12:12:59;;;;;;;12.90;10.15;;;;;;;;;;5049260;28;20056;-75
2022/11/27 12:15:28;;;;;;;12.90;7.97;;;;;;;;;;5067011;28;20740;-75
2022/11/27 12:17:59;;;;;;;10.25;8.02;;;;;;;;;;5067521;28;20756;-74
2022/11/27 12:20:44;;;;;;;13.63;7.32;;;;;;;;;;5070394;28;20074;-75
2022/11/27 12:23:13;;;;;;;12.00;7.50;;;;;;;;;;5047116;28;20117;-77
2022/11/27 12:25:58;;;;;;;10.23;7.80;;;;;;;;;;5063646;28;20052;-76
2022/11/27 12:28:30;;;;;;;12.15;7.65;;;;;;;;;;5044634;28;20452;-75
2022/11/27 12:31:03;;;;;;;11.00;7.82;;;;;;;;;;5062851;28;20496;-75
2022/11/27 12:33:35;;;;;;;11.57;8.32;;;;;;;;;;5041612;28;20052;-76
2022/11/27 12:36:07;;;;;;;15.00;10.13;;;;;;;;;;5042523;28;20053;-76
2022/11/27 12:38:33;;;;;;;12.50;10.05;;;;;;;;;;5072911;28;20235;-76
2022/11/27 12:41:02;;;;;;;14.35;10.60;;;;;;;;;;5050716;28;20049;-75
2022/11/27 12:43:32;;;;;;;12.98;10.35;;;;;;;;;;5048084;28;20061;-76
2022/11/27 12:46:19;;;;;;;11.27;8.85;;;;;;;;;;5053659;28;20048;-75
2022/11/27 12:49:00;;;;;;;12.35;9.10;;;;;;;;;;5077659;28;20132;-76
2022/11/27 12:51:31;;;;;;;13.45;8.07;;;;;;;;;;5050308;28;20093;-76
2022/11/27 12:54:03;;;;;;;12.90;7.93;;;;;;;;;;5047418;28;20044;-76
2022/11/27 12:56:44;;;;;;;10.23;7.72;;;;;;;;;;5053827;28;20048;-76
2022/11/27 12:59:20;;;;;;;9.98;7.45;;;;;;;;;;5048572;28;20076;-76
2022/11/27 13:01:49;;;;;;;10.43;7.40;;;;;;;;;;5049346;28;20048;-76
2022/11/27 13:04:34;;;;;;;10.60;7.55;;;;;;;;;;5051065;28;20108;-76
2022/11/27 13:07:16;;;;;;;10.75;7.80;;;;;;;;;;5048392;28;20128;-76
2022/11/27 13:10:01;;;;;;;10.32;7.10;;;;;;;;;;5050165;28;20084;-76
2022/11/27 13:12:46;;;;;;;11.60;7.35;;;;;;;;;;5052778;28;20118;-76
2022/11/27 13:15:27;;;;;;;11.70;7.45;;;;;;;;;;5053630;28;20041;-76
2022/11/27 13:18:00;;;;;;;11.48;7.80;;;;;;;;;;5053550;28;20052;-76
2022/11/27 13:20:32;;;;;;;20.63;13.48;;;;;;;;;;5051467;28;20488;-76
2022/11/27 13:23:01;;;;;;;15.30;9.60;;;;;;;;;;5080748;28;20420;-76
2022/11/27 13:25:27;;;;;;;10.65;8.73;;;;;;;;;;5055601;28;20557;-76
2022/11/27 13:27:54;;;;;;;14.73;10.18;;;;;;;;;;5049424;28;20828;-75
2022/11/27 13:30:25;;;;;;;13.70;9.68;;;;;;;;;;5079279;28;20051;-76
2022/11/27 13:32:56;;;;;;;12.73;8.85;;;;;;;;;;5079825;28;20051;-76
2022/11/27 13:35:30;;;;;;;14.43;7.88;;;;;;;;;;5050502;28;20041;-76
2022/11/27 13:37:59;;;;;;;12.10;8.43;;;;;;;;;;5054152;28;20041;-75
2022/11/27 13:40:31;;;;;;;11.18;8.45;;;;;;;;;;5078582;28;20395;-76
2022/11/27 13:42:59;;;;;;;13.25;7.90;;;;;;;;;;5051719;28;20064;-76
2022/11/27 13:45:27;;;;;;;11.75;7.47;;;;;;;;;;5080455;28;20073;-76
2022/11/27 13:47:54;;;;;;;10.32;6.88;;;;;;;;;;5052761;28;20052;-75
2022/11/27 13:50:22;;;;;;;9.25;5.97;;;;;;;;;;5051856;28;20048;-76
2022/11/27 13:52:49;;;;;;;9.40;7.18;;;;;;;;;;5049625;28;20048;-76
2022/11/27 13:55:23;;;;;;;12.60;9.32;;;;;;;;;;5051757;28;20044;-76
2022/11/27 13:57:53;;;;;;;10.25;6.70;;;;;;;;;;5050168;28;20045;-76
2022/11/27 14:00:29;;;;;;;12.55;6.93;;;;;;;;;;5048798;28;20045;-76
2022/11/27 14:02:55;;;;;;;11.52;8.15;;;;;;;;;;5078127;28;20049;-75
2022/11/27 14:05:33;;;;;;;9.88;6.88;;;;;;;;;;5048330;28;20079;-76
2022/11/27 14:07:59;;;;;;;11.57;7.13;;;;;;;;;;5052923;28;20048;-76
2022/11/27 14:10:27;;;;;;;12.25;7.75;;;;;;;;;;5050321;28;20073;-76
2022/11/27 14:13:02;;;;;;;12.40;8.80;;;;;;;;;;5080016;28;20126;-75
2022/11/27 14:15:29;;;;;;;13.23;8.65;;;;;;;;;;5048958;28;20106;-76
2022/11/27 14:18:04;;;;;;;13.55;9.20;;;;;;;;;;5052455;28;20559;-75
2022/11/27 14:20:32;;;;;;;17.05;10.60;;;;;;;;;;5053563;28;20056;-76
2022/11/27 14:22:59;;;;;;;20.05;12.35;;;;;;;;;;5051029;28;20054;-76
2022/11/27 14:25:26;;;;;;;16.85;10.90;;;;;;;;;;5078581;28;20408;-76
2022/11/27 14:28:02;;;;;;;17.77;15.88;;;;;;;;;;5080873;28;20045;-76
2022/11/27 14:30:39;;;;;;;18.83;10.60;;;;;;;;;;5051143;28;20049;-76
2022/11/27 14:33:05;;;;;;;15.73;9.63;;;;;;;;;;5051160;28;20044;-76
2022/11/27 14:35:31;;;;;;;17.83;11.88;;;;;;;;;;5052187;28;20043;-75
2022/11/27 14:38:10;;;;;;;15.95;11.32;;;;;;;;;;5080679;28;20057;-75
2022/11/27 14:40:37;;;;;;;17.50;11.18;;;;;;;;;;5064750;28;20052;-76
2022/11/27 14:43:07;;;;;;;17.58;10.35;;;;;;;;;;5055842;28;20052;-75
2022/11/27 14:45:34;;;;;;;14.30;10.50;;;;;;;;;;5055480;28;20511;-76